Decoded Metar for PATC (TIN CITY in AK, USA) (IATA:TNC) | Meteo·Mobile Aviation Weather
aviador You're here:

PATC Decoded Metar

TIN CITY in AK, USA
Report Time2018-11-19 03:07:00
UTC Time2018-11-19 03:45:44
Flight Rules ifr IFR
Wind040° at 20 kt
W.Decomp.*RWY 34: 13.6 kt HW 14.6 kt RCW
W.Rank040° ranks 3
Current wind is above 040° avg. (15.7)
Visibility2816 m
Phenomena:Light Snow
Clouds:Few 004 Hf
Overcast 031 Hf
Ceiling3,100 ft
Temp-4°C (ISA -18)
Dew Point-4°C (100% RH)
AAT-13.7°C
QNH997 hPa
Density Alt-1,388 ft
Elevation272 ft
Report Wrong Elevation
Raw Report
PATC 190307Z AUTO 04020KT 1 3/4SM -SN FEW004 OVC031 M04/M04 A2944=

Extra information for PATC:More info

Metar Taf Metar & Taf Last 4 Metars F.Rules Stats Wind Profile Meteogram Temp Stats Airport Information Weather charts Add Link Nearby VenuesMetar ALERT Operation Metar Decoded Social comments

AIRNAV info for PATC